sensor_id;sensor_type;location;lat;lon;timestamp;P1;durP1;ratioP1;P2;durP2;ratioP2
14276;SDS011;7222;57.346;12.150;2022-12-07T00:01:48;7.87;;;5.70;;
14276;SDS011;7222;57.346;12.150;2022-12-07T00:04:16;12.90;;;6.50;;
14276;SDS011;7222;57.346;12.150;2022-12-07T00:06:45;11.13;;;6.30;;
14276;SDS011;7222;57.346;12.150;2022-12-07T00:09:15;10.20;;;6.33;;
14276;SDS011;7222;57.346;12.150;2022-12-07T00:11:43;8.97;;;5.57;;
14276;SDS011;7222;57.346;12.150;2022-12-07T00:14:12;9.40;;;5.60;;
14276;SDS011;7222;57.346;12.150;2022-12-07T00:16:40;11.67;;;6.20;;
14276;SDS011;7222;57.346;12.150;2022-12-07T00:19:09;10.93;;;5.50;;
14276;SDS011;7222;57.346;12.150;2022-12-07T00:21:37;10.00;;;5.73;;
14276;SDS011;7222;57.346;12.150;2022-12-07T00:24:05;14.23;;;5.53;;
14276;SDS011;7222;57.346;12.150;2022-12-07T00:26:34;9.10;;;4.80;;
14276;SDS011;7222;57.346;12.150;2022-12-07T00:29:04;11.13;;;6.17;;
14276;SDS011;7222;57.346;12.150;2022-12-07T00:31:32;11.30;;;6.07;;
14276;SDS011;7222;57.346;12.150;2022-12-07T00:34:03;8.97;;;5.40;;
14276;SDS011;7222;57.346;12.150;2022-12-07T00:36:31;9.43;;;6.20;;
14276;SDS011;7222;57.346;12.150;2022-12-07T00:38:59;9.73;;;5.87;;
14276;SDS011;7222;57.346;12.150;2022-12-07T00:41:27;9.07;;;5.27;;
14276;SDS011;7222;57.346;12.150;2022-12-07T00:43:56;9.97;;;6.13;;
14276;SDS011;7222;57.346;12.150;2022-12-07T00:46:24;10.17;;;5.97;;
14276;SDS011;7222;57.346;12.150;2022-12-07T00:48:51;12.03;;;6.80;;
14276;SDS011;7222;57.346;12.150;2022-12-07T00:51:20;9.63;;;5.33;;
14276;SDS011;7222;57.346;12.150;2022-12-07T00:53:49;7.77;;;4.97;;
14276;SDS011;7222;57.346;12.150;2022-12-07T00:56:17;10.97;;;6.10;;
14276;SDS011;7222;57.346;12.150;2022-12-07T00:58:49;10.53;;;5.50;;
14276;SDS011;7222;57.346;12.150;2022-12-07T01:01:18;11.90;;;6.73;;
14276;SDS011;7222;57.346;12.150;2022-12-07T01:03:45;11.17;;;6.50;;
14276;SDS011;7222;57.346;12.150;2022-12-07T01:06:13;9.50;;;6.37;;
14276;SDS011;7222;57.346;12.150;2022-12-07T01:08:41;9.37;;;5.60;;
14276;SDS011;7222;57.346;12.150;2022-12-07T01:11:09;7.80;;;5.13;;
14276;SDS011;7222;57.346;12.150;2022-12-07T01:13:38;10.47;;;5.93;;
14276;SDS011;7222;57.346;12.150;2022-12-07T01:16:06;11.23;;;6.93;;
14276;SDS011;7222;57.346;12.150;2022-12-07T01:18:35;8.90;;;5.27;;
14276;SDS011;7222;57.346;12.150;2022-12-07T01:21:04;9.80;;;5.73;;
14276;SDS011;7222;57.346;12.150;2022-12-07T01:23:32;9.47;;;6.07;;
14276;SDS011;7222;57.346;12.150;2022-12-07T01:26:01;11.73;;;6.80;;
14276;SDS011;7222;57.346;12.150;2022-12-07T01:28:30;10.20;;;5.93;;
14276;SDS011;7222;57.346;12.150;2022-12-07T01:30:58;7.83;;;4.70;;
14276;SDS011;7222;57.346;12.150;2022-12-07T01:33:27;11.00;;;6.93;;
14276;SDS011;7222;57.346;12.150;2022-12-07T01:35:56;10.53;;;6.70;;
14276;SDS011;7222;57.346;12.150;2022-12-07T01:38:27;12.53;;;5.57;;
14276;SDS011;7222;57.346;12.150;2022-12-07T01:40:55;11.23;;;7.17;;
14276;SDS011;7222;57.346;12.150;2022-12-07T01:43:23;10.20;;;5.60;;
14276;SDS011;7222;57.346;12.150;2022-12-07T01:45:52;9.30;;;6.10;;
14276;SDS011;7222;57.346;12.150;2022-12-07T01:48:20;10.20;;;5.60;;
14276;SDS011;7222;57.346;12.150;2022-12-07T01:50:51;8.20;;;5.87;;
14276;SDS011;7222;57.346;12.150;2022-12-07T01:53:22;10.57;;;6.07;;
14276;SDS011;7222;57.346;12.150;2022-12-07T01:55:52;11.47;;;5.90;;
14276;SDS011;7222;57.346;12.150;2022-12-07T01:58:20;8.20;;;5.70;;
14276;SDS011;7222;57.346;12.150;2022-12-07T02:00:48;12.43;;;6.80;;
14276;SDS011;7222;57.346;12.150;2022-12-07T02:03:16;11.13;;;5.80;;
14276;SDS011;7222;57.346;12.150;2022-12-07T02:05:47;10.30;;;5.90;;
14276;SDS011;7222;57.346;12.150;2022-12-07T02:08:15;11.63;;;7.47;;
14276;SDS011;7222;57.346;12.150;2022-12-07T02:10:45;11.67;;;5.90;;
14276;SDS011;7222;57.346;12.150;2022-12-07T02:13:12;4.33;;;2.87;;
14276;SDS011;7222;57.346;12.150;2022-12-07T02:15:49;11.57;;;6.73;;
14276;SDS011;7222;57.346;12.150;2022-12-07T02:18:38;10.27;;;6.57;;
14276;SDS011;7222;57.346;12.150;2022-12-07T02:21:19;11.10;;;6.80;;
14276;SDS011;7222;57.346;12.150;2022-12-07T02:23:59;9.53;;;5.53;;
14276;SDS011;7222;57.346;12.150;2022-12-07T02:26:59;10.70;;;5.53;;
14276;SDS011;7222;57.346;12.150;2022-12-07T02:29:39;9.10;;;6.33;;
14276;SDS011;7222;57.346;12.150;2022-12-07T02:32:12;8.13;;;5.10;;
14276;SDS011;7222;57.346;12.150;2022-12-07T02:34:44;9.67;;;5.77;;
14276;SDS011;7222;57.346;12.150;2022-12-07T02:37:19;9.30;;;6.20;;
14276;SDS011;7222;57.346;12.150;2022-12-07T02:39:55;8.63;;;5.30;;
14276;SDS011;7222;57.346;12.150;2022-12-07T02:42:28;7.57;;;5.27;;
14276;SDS011;7222;57.346;12.150;2022-12-07T02:45:03;10.50;;;5.90;;
14276;SDS011;7222;57.346;12.150;2022-12-07T02:47:33;7.67;;;4.97;;
14276;SDS011;7222;57.346;12.150;2022-12-07T02:50:02;11.43;;;6.17;;
14276;SDS011;7222;57.346;12.150;2022-12-07T02:52:30;8.33;;;5.30;;
14276;SDS011;7222;57.346;12.150;2022-12-07T02:54:57;7.37;;;4.73;;
14276;SDS011;7222;57.346;12.150;2022-12-07T02:57:28;9.40;;;4.77;;
14276;SDS011;7222;57.346;12.150;2022-12-07T03:00:11;7.70;;;4.93;;
14276;SDS011;7222;57.346;12.150;2022-12-07T03:02:46;9.27;;;5.67;;
14276;SDS011;7222;57.346;12.150;2022-12-07T03:05:26;8.53;;;5.37;;
14276;SDS011;7222;57.346;12.150;2022-12-07T03:08:12;7.73;;;5.17;;
14276;SDS011;7222;57.346;12.150;2022-12-07T03:10:48;8.90;;;5.50;;
14276;SDS011;7222;57.346;12.150;2022-12-07T03:13:23;8.47;;;5.70;;
14276;SDS011;7222;57.346;12.150;2022-12-07T03:15:57;10.33;;;4.67;;
14276;SDS011;7222;57.346;12.150;2022-12-07T03:18:30;9.83;;;5.63;;
14276;SDS011;7222;57.346;12.150;2022-12-07T03:21:01;9.07;;;5.50;;
14276;SDS011;7222;57.346;12.150;2022-12-07T03:23:32;7.03;;;4.97;;
14276;SDS011;7222;57.346;12.150;2022-12-07T03:26:02;11.17;;;5.43;;
14276;SDS011;7222;57.346;12.150;2022-12-07T03:28:31;7.40;;;5.03;;
14276;SDS011;7222;57.346;12.150;2022-12-07T03:31:05;9.43;;;5.67;;
14276;SDS011;7222;57.346;12.150;2022-12-07T03:33:39;8.43;;;4.77;;
14276;SDS011;7222;57.346;12.150;2022-12-07T03:36:14;10.47;;;5.60;;
14276;SDS011;7222;57.346;12.150;2022-12-07T03:38:46;8.17;;;5.13;;
14276;SDS011;7222;57.346;12.150;2022-12-07T03:41:17;8.33;;;5.13;;
14276;SDS011;7222;57.346;12.150;2022-12-07T03:43:49;8.63;;;5.73;;
14276;SDS011;7222;57.346;12.150;2022-12-07T03:46:19;10.20;;;4.90;;
14276;SDS011;7222;57.346;12.150;2022-12-07T03:48:54;6.40;;;4.33;;
14276;SDS011;7222;57.346;12.150;2022-12-07T03:51:28;9.43;;;5.20;;
14276;SDS011;7222;57.346;12.150;2022-12-07T03:54:02;9.47;;;5.20;;
14276;SDS011;7222;57.346;12.150;2022-12-07T03:56:37;9.50;;;4.60;;
14276;SDS011;7222;57.346;12.150;2022-12-07T03:59:06;7.73;;;5.07;;
14276;SDS011;7222;57.346;12.150;2022-12-07T04:01:35;7.93;;;4.73;;
14276;SDS011;7222;57.346;12.150;2022-12-07T04:04:02;6.63;;;4.37;;
14276;SDS011;7222;57.346;12.150;2022-12-07T04:06:29;6.20;;;3.80;;
14276;SDS011;7222;57.346;12.150;2022-12-07T04:08:56;8.83;;;4.33;;
14276;SDS011;7222;57.346;12.150;2022-12-07T04:11:23;6.10;;;3.90;;
14276;SDS011;7222;57.346;12.150;2022-12-07T04:13:50;6.53;;;4.47;;
14276;SDS011;7222;57.346;12.150;2022-12-07T04:16:31;7.93;;;4.50;;
14276;SDS011;7222;57.346;12.150;2022-12-07T04:19:00;8.77;;;4.27;;
14276;SDS011;7222;57.346;12.150;2022-12-07T04:21:27;6.37;;;4.60;;
14276;SDS011;7222;57.346;12.150;2022-12-07T04:23:54;7.93;;;5.03;;
14276;SDS011;7222;57.346;12.150;2022-12-07T04:26:21;7.07;;;4.23;;
14276;SDS011;7222;57.346;12.150;2022-12-07T04:28:48;10.10;;;4.40;;
14276;SDS011;7222;57.346;12.150;2022-12-07T04:31:15;8.40;;;5.00;;
14276;SDS011;7222;57.346;12.150;2022-12-07T04:33:42;7.57;;;4.40;;
14276;SDS011;7222;57.346;12.150;2022-12-07T04:36:11;6.03;;;4.17;;
14276;SDS011;7222;57.346;12.150;2022-12-07T04:38:38;8.87;;;4.00;;
14276;SDS011;7222;57.346;12.150;2022-12-07T04:41:05;7.50;;;4.30;;
14276;SDS011;7222;57.346;12.150;2022-12-07T04:43:33;7.80;;;4.87;;
14276;SDS011;7222;57.346;12.150;2022-12-07T04:46:00;7.37;;;4.83;;
14276;SDS011;7222;57.346;12.150;2022-12-07T04:48:28;6.10;;;3.93;;
14276;SDS011;7222;57.346;12.150;2022-12-07T04:50:55;5.47;;;3.57;;
14276;SDS011;7222;57.346;12.150;2022-12-07T04:53:23;6.67;;;3.73;;
14276;SDS011;7222;57.346;12.150;2022-12-07T04:55:50;7.17;;;3.97;;
14276;SDS011;7222;57.346;12.150;2022-12-07T04:58:17;6.33;;;4.57;;
14276;SDS011;7222;57.346;12.150;2022-12-07T05:00:44;6.87;;;4.30;;
14276;SDS011;7222;57.346;12.150;2022-12-07T05:03:11;6.33;;;3.83;;
14276;SDS011;7222;57.346;12.150;2022-12-07T05:05:39;8.47;;;3.43;;
14276;SDS011;7222;57.346;12.150;2022-12-07T05:08:07;8.20;;;3.80;;
14276;SDS011;7222;57.346;12.150;2022-12-07T05:10:36;7.23;;;4.20;;
14276;SDS011;7222;57.346;12.150;2022-12-07T05:13:03;5.43;;;3.43;;
14276;SDS011;7222;57.346;12.150;2022-12-07T05:15:30;7.07;;;4.03;;
14276;SDS011;7222;57.346;12.150;2022-12-07T05:17:57;8.17;;;4.10;;
14276;SDS011;7222;57.346;12.150;2022-12-07T05:20:24;7.53;;;4.00;;
14276;SDS011;7222;57.346;12.150;2022-12-07T05:22:51;6.93;;;4.00;;
14276;SDS011;7222;57.346;12.150;2022-12-07T05:25:18;6.23;;;3.70;;
14276;SDS011;7222;57.346;12.150;2022-12-07T05:27:46;7.33;;;3.60;;
14276;SDS011;7222;57.346;12.150;2022-12-07T05:30:13;7.50;;;3.63;;
14276;SDS011;7222;57.346;12.150;2022-12-07T05:32:40;6.00;;;3.20;;
14276;SDS011;7222;57.346;12.150;2022-12-07T05:35:08;5.67;;;2.73;;
14276;SDS011;7222;57.346;12.150;2022-12-07T05:37:35;5.83;;;3.27;;
14276;SDS011;7222;57.346;12.150;2022-12-07T05:40:02;7.37;;;4.33;;
14276;SDS011;7222;57.346;12.150;2022-12-07T05:42:30;7.77;;;4.20;;
14276;SDS011;7222;57.346;12.150;2022-12-07T05:44:59;5.80;;;3.63;;
14276;SDS011;7222;57.346;12.150;2022-12-07T05:47:26;6.30;;;3.57;;
14276;SDS011;7222;57.346;12.150;2022-12-07T05:49:52;7.50;;;3.60;;
14276;SDS011;7222;57.346;12.150;2022-12-07T05:52:19;5.03;;;3.70;;
14276;SDS011;7222;57.346;12.150;2022-12-07T05:54:47;7.27;;;3.90;;
14276;SDS011;7222;57.346;12.150;2022-12-07T05:57:14;7.70;;;3.83;;
14276;SDS011;7222;57.346;12.150;2022-12-07T05:59:41;7.07;;;3.80;;
14276;SDS011;7222;57.346;12.150;2022-12-07T06:02:09;6.67;;;3.43;;
14276;SDS011;7222;57.346;12.150;2022-12-07T06:04:37;6.70;;;3.83;;
14276;SDS011;7222;57.346;12.150;2022-12-07T06:07:09;6.00;;;3.97;;
14276;SDS011;7222;57.346;12.150;2022-12-07T06:09:37;6.77;;;3.63;;
14276;SDS011;7222;57.346;12.150;2022-12-07T06:12:05;7.87;;;3.70;;
14276;SDS011;7222;57.346;12.150;2022-12-07T06:14:50;7.60;;;3.87;;
14276;SDS011;7222;57.346;12.150;2022-12-07T06:17:18;9.67;;;3.63;;
14276;SDS011;7222;57.346;12.150;2022-12-07T06:19:45;6.00;;;3.50;;
14276;SDS011;7222;57.346;12.150;2022-12-07T06:22:12;5.27;;;3.40;;
14276;SDS011;7222;57.346;12.150;2022-12-07T06:24:41;7.90;;;3.63;;
14276;SDS011;7222;57.346;12.150;2022-12-07T06:27:08;7.93;;;4.13;;
14276;SDS011;7222;57.346;12.150;2022-12-07T06:29:36;6.30;;;3.40;;
14276;SDS011;7222;57.346;12.150;2022-12-07T06:32:03;5.97;;;3.50;;
14276;SDS011;7222;57.346;12.150;2022-12-07T06:34:32;4.97;;;3.33;;
14276;SDS011;7222;57.346;12.150;2022-12-07T06:36:59;10.27;;;3.97;;
14276;SDS011;7222;57.346;12.150;2022-12-07T06:39:27;7.60;;;2.77;;
14276;SDS011;7222;57.346;12.150;2022-12-07T06:41:54;5.90;;;3.30;;
14276;SDS011;7222;57.346;12.150;2022-12-07T06:44:22;4.90;;;3.40;;
14276;SDS011;7222;57.346;12.150;2022-12-07T06:46:49;5.03;;;2.93;;
14276;SDS011;7222;57.346;12.150;2022-12-07T06:49:17;4.80;;;3.10;;
14276;SDS011;7222;57.346;12.150;2022-12-07T06:51:45;4.57;;;3.00;;
14276;SDS011;7222;57.346;12.150;2022-12-07T06:54:13;4.90;;;3.20;;
14276;SDS011;7222;57.346;12.150;2022-12-07T06:56:41;10.03;;;3.43;;
14276;SDS011;7222;57.346;12.150;2022-12-07T06:59:08;4.23;;;3.30;;
14276;SDS011;7222;57.346;12.150;2022-12-07T07:01:35;3.43;;;3.10;;
14276;SDS011;7222;57.346;12.150;2022-12-07T07:04:03;5.80;;;3.37;;
14276;SDS011;7222;57.346;12.150;2022-12-07T07:06:30;3.53;;;2.90;;
14276;SDS011;7222;57.346;12.150;2022-12-07T07:08:58;7.93;;;4.00;;
14276;SDS011;7222;57.346;12.150;2022-12-07T07:11:25;5.07;;;3.10;;
14276;SDS011;7222;57.346;12.150;2022-12-07T07:13:52;6.23;;;3.30;;
14276;SDS011;7222;57.346;12.150;2022-12-07T07:16:22;6.57;;;4.53;;
14276;SDS011;7222;57.346;12.150;2022-12-07T07:18:49;6.10;;;3.30;;
14276;SDS011;7222;57.346;12.150;2022-12-07T07:21:16;5.47;;;4.00;;
14276;SDS011;7222;57.346;12.150;2022-12-07T07:23:43;8.67;;;5.03;;
14276;SDS011;7222;57.346;12.150;2022-12-07T07:26:11;9.73;;;5.03;;
14276;SDS011;7222;57.346;12.150;2022-12-07T07:28:38;7.17;;;4.37;;
14276;SDS011;7222;57.346;12.150;2022-12-07T07:31:05;5.73;;;3.47;;
14276;SDS011;7222;57.346;12.150;2022-12-07T07:33:32;9.57;;;4.43;;
14276;SDS011;7222;57.346;12.150;2022-12-07T07:35:59;5.47;;;4.10;;
14276;SDS011;7222;57.346;12.150;2022-12-07T07:38:26;5.43;;;3.40;;
14276;SDS011;7222;57.346;12.150;2022-12-07T07:40:53;5.17;;;3.50;;
14276;SDS011;7222;57.346;12.150;2022-12-07T07:43:21;5.53;;;3.77;;
14276;SDS011;7222;57.346;12.150;2022-12-07T07:45:48;6.73;;;4.60;;
14276;SDS011;7222;57.346;12.150;2022-12-07T07:48:15;6.30;;;3.27;;
14276;SDS011;7222;57.346;12.150;2022-12-07T07:50:43;5.10;;;3.57;;
14276;SDS011;7222;57.346;12.150;2022-12-07T07:53:10;7.87;;;3.57;;
14276;SDS011;7222;57.346;12.150;2022-12-07T07:55:36;5.17;;;3.60;;
14276;SDS011;7222;57.346;12.150;2022-12-07T07:58:03;7.40;;;3.60;;
14276;SDS011;7222;57.346;12.150;2022-12-07T08:00:32;6.27;;;3.83;;
14276;SDS011;7222;57.346;12.150;2022-12-07T08:02:59;3.80;;;2.73;;
14276;SDS011;7222;57.346;12.150;2022-12-07T08:05:26;4.00;;;3.10;;
14276;SDS011;7222;57.346;12.150;2022-12-07T08:07:53;6.43;;;3.60;;
14276;SDS011;7222;57.346;12.150;2022-12-07T08:10:20;6.77;;;3.70;;
14276;SDS011;7222;57.346;12.150;2022-12-07T08:12:46;4.07;;;2.97;;
14276;SDS011;7222;57.346;12.150;2022-12-07T08:15:32;5.87;;;3.23;;
14276;SDS011;7222;57.346;12.150;2022-12-07T08:17:59;5.63;;;3.30;;
14276;SDS011;7222;57.346;12.150;2022-12-07T08:20:26;7.80;;;3.80;;
14276;SDS011;7222;57.346;12.150;2022-12-07T08:22:55;4.60;;;3.03;;
14276;SDS011;7222;57.346;12.150;2022-12-07T08:25:23;4.70;;;3.03;;
14276;SDS011;7222;57.346;12.150;2022-12-07T08:27:50;6.40;;;3.63;;
14276;SDS011;7222;57.346;12.150;2022-12-07T08:30:18;5.23;;;2.80;;
14276;SDS011;7222;57.346;12.150;2022-12-07T08:32:47;6.43;;;3.53;;
14276;SDS011;7222;57.346;12.150;2022-12-07T08:35:14;4.47;;;3.10;;
14276;SDS011;7222;57.346;12.150;2022-12-07T08:37:42;5.60;;;3.37;;
14276;SDS011;7222;57.346;12.150;2022-12-07T08:40:09;5.53;;;3.10;;
14276;SDS011;7222;57.346;12.150;2022-12-07T08:42:40;5.33;;;2.67;;
14276;SDS011;7222;57.346;12.150;2022-12-07T08:45:08;5.60;;;2.77;;
14276;SDS011;7222;57.346;12.150;2022-12-07T08:47:37;3.67;;;2.83;;
14276;SDS011;7222;57.346;12.150;2022-12-07T08:50:08;6.13;;;2.90;;
14276;SDS011;7222;57.346;12.150;2022-12-07T08:52:37;5.30;;;2.83;;
14276;SDS011;7222;57.346;12.150;2022-12-07T08:55:05;3.30;;;2.60;;
14276;SDS011;7222;57.346;12.150;2022-12-07T08:57:33;4.97;;;2.70;;
14276;SDS011;7222;57.346;12.150;2022-12-07T09:00:02;2.60;;;2.40;;
14276;SDS011;7222;57.346;12.150;2022-12-07T09:02:30;4.37;;;2.30;;
14276;SDS011;7222;57.346;12.150;2022-12-07T09:04:57;3.50;;;2.90;;
14276;SDS011;7222;57.346;12.150;2022-12-07T09:07:25;4.87;;;2.80;;
14276;SDS011;7222;57.346;12.150;2022-12-07T09:09:53;3.00;;;2.70;;
14276;SDS011;7222;57.346;12.150;2022-12-07T09:12:21;4.37;;;2.30;;
14276;SDS011;7222;57.346;12.150;2022-12-07T09:14:47;2.97;;;2.40;;
14276;SDS011;7222;57.346;12.150;2022-12-07T09:17:15;3.47;;;2.40;;
14276;SDS011;7222;57.346;12.150;2022-12-07T09:19:42;4.53;;;2.87;;
14276;SDS011;7222;57.346;12.150;2022-12-07T09:22:09;3.67;;;2.53;;
14276;SDS011;7222;57.346;12.150;2022-12-07T09:24:37;3.57;;;2.40;;
14276;SDS011;7222;57.346;12.150;2022-12-07T09:27:04;3.40;;;2.17;;
14276;SDS011;7222;57.346;12.150;2022-12-07T09:29:31;3.73;;;2.67;;
14276;SDS011;7222;57.346;12.150;2022-12-07T09:31:58;2.60;;;2.13;;
14276;SDS011;7222;57.346;12.150;2022-12-07T09:34:25;3.00;;;2.13;;
14276;SDS011;7222;57.346;12.150;2022-12-07T09:36:52;5.43;;;2.20;;
14276;SDS011;7222;57.346;12.150;2022-12-07T09:39:19;4.03;;;2.43;;
14276;SDS011;7222;57.346;12.150;2022-12-07T09:41:48;3.87;;;2.50;;
14276;SDS011;7222;57.346;12.150;2022-12-07T09:44:17;3.50;;;2.30;;
14276;SDS011;7222;57.346;12.150;2022-12-07T09:46:47;4.33;;;2.10;;
14276;SDS011;7222;57.346;12.150;2022-12-07T09:49:18;2.73;;;1.90;;
14276;SDS011;7222;57.346;12.150;2022-12-07T09:51:47;5.30;;;2.70;;
14276;SDS011;7222;57.346;12.150;2022-12-07T09:54:25;4.20;;;2.40;;
14276;SDS011;7222;57.346;12.150;2022-12-07T09:56:53;4.60;;;2.50;;
14276;SDS011;7222;57.346;12.150;2022-12-07T09:59:20;3.73;;;2.30;;
14276;SDS011;7222;57.346;12.150;2022-12-07T10:01:48;4.53;;;2.00;;
14276;SDS011;7222;57.346;12.150;2022-12-07T10:04:16;3.23;;;2.43;;
14276;SDS011;7222;57.346;12.150;2022-12-07T10:06:46;4.20;;;2.70;;
14276;SDS011;7222;57.346;12.150;2022-12-07T10:09:16;4.27;;;2.83;;
14276;SDS011;7222;57.346;12.150;2022-12-07T10:12:09;4.33;;;2.10;;
14276;SDS011;7222;57.346;12.150;2022-12-07T10:14:39;4.37;;;3.07;;
14276;SDS011;7222;57.346;12.150;2022-12-07T10:17:32;3.00;;;2.20;;
14276;SDS011;7222;57.346;12.150;2022-12-07T10:22:57;2.70;;;2.03;;
14276;SDS011;7222;57.346;12.150;2022-12-07T10:25:28;3.40;;;2.30;;
14276;SDS011;7222;57.346;12.150;2022-12-07T10:28:03;6.37;;;2.30;;
14276;SDS011;7222;57.346;12.150;2022-12-07T10:30:48;2.90;;;2.00;;
14276;SDS011;7222;57.346;12.150;2022-12-07T10:33:29;3.23;;;2.10;;
14276;SDS011;7222;57.346;12.150;2022-12-07T10:35:59;3.03;;;2.00;;
14276;SDS011;7222;57.346;12.150;2022-12-07T10:38:27;2.63;;;2.43;;
14276;SDS011;7222;57.346;12.150;2022-12-07T10:41:03;4.20;;;1.90;;
14276;SDS011;7222;57.346;12.150;2022-12-07T10:43:33;2.50;;;1.80;;
14276;SDS011;7222;57.346;12.150;2022-12-07T10:46:14;4.17;;;2.07;;
14276;SDS011;7222;57.346;12.150;2022-12-07T10:49:15;2.23;;;1.70;;
14276;SDS011;7222;57.346;12.150;2022-12-07T10:51:59;3.60;;;2.10;;
14276;SDS011;7222;57.346;12.150;2022-12-07T10:54:30;3.27;;;1.63;;
14276;SDS011;7222;57.346;12.150;2022-12-07T10:57:14;3.63;;;1.60;;
14276;SDS011;7222;57.346;12.150;2022-12-07T10:59:57;3.30;;;1.60;;
14276;SDS011;7222;57.346;12.150;2022-12-07T11:02:36;2.90;;;1.20;;
14276;SDS011;7222;57.346;12.150;2022-12-07T11:05:24;1.90;;;1.60;;
14276;SDS011;7222;57.346;12.150;2022-12-07T11:07:59;2.20;;;1.43;;
14276;SDS011;7222;57.346;12.150;2022-12-07T11:10:35;3.30;;;1.73;;
14276;SDS011;7222;57.346;12.150;2022-12-07T11:13:18;1.57;;;1.47;;
14276;SDS011;7222;57.346;12.150;2022-12-07T11:15:57;2.73;;;1.70;;
14276;SDS011;7222;57.346;12.150;2022-12-07T11:18:33;1.63;;;1.37;;
14276;SDS011;7222;57.346;12.150;2022-12-07T11:21:07;1.70;;;1.30;;
14276;SDS011;7222;57.346;12.150;2022-12-07T11:23:42;2.50;;;2.07;;
14276;SDS011;7222;57.346;12.150;2022-12-07T11:26:17;4.23;;;1.50;;
14276;SDS011;7222;57.346;12.150;2022-12-07T11:28:58;2.07;;;1.57;;
14276;SDS011;7222;57.346;12.150;2022-12-07T11:31:42;2.23;;;2.00;;
14276;SDS011;7222;57.346;12.150;2022-12-07T11:34:21;2.67;;;1.20;;
14276;SDS011;7222;57.346;12.150;2022-12-07T11:36:57;5.00;;;1.87;;
14276;SDS011;7222;57.346;12.150;2022-12-07T11:39:26;1.57;;;1.40;;
14276;SDS011;7222;57.346;12.150;2022-12-07T11:42:00;1.73;;;1.30;;
14276;SDS011;7222;57.346;12.150;2022-12-07T11:44:31;1.63;;;1.43;;
14276;SDS011;7222;57.346;12.150;2022-12-07T11:47:06;1.30;;;1.20;;
14276;SDS011;7222;57.346;12.150;2022-12-07T11:49:40;1.10;;;1.00;;
14276;SDS011;7222;57.346;12.150;2022-12-07T11:52:14;1.83;;;1.10;;
14276;SDS011;7222;57.346;12.150;2022-12-07T11:54:48;1.10;;;1.00;;
14276;SDS011;7222;57.346;12.150;2022-12-07T11:57:20;1.20;;;1.10;;
14276;SDS011;7222;57.346;12.150;2022-12-07T11:59:56;1.93;;;1.00;;
14276;SDS011;7222;57.346;12.150;2022-12-07T12:02:31;0.97;;;0.93;;
14276;SDS011;7222;57.346;12.150;2022-12-07T12:05:05;1.07;;;1.00;;
14276;SDS011;7222;57.346;12.150;2022-12-07T12:07:41;1.20;;;1.00;;
14276;SDS011;7222;57.346;12.150;2022-12-07T12:10:15;0.87;;;0.80;;
14276;SDS011;7222;57.346;12.150;2022-12-07T12:13:05;0.80;;;0.80;;
14276;SDS011;7222;57.346;12.150;2022-12-07T12:15:51;0.93;;;0.70;;
14276;SDS011;7222;57.346;12.150;2022-12-07T12:18:42;0.57;;;0.57;;
14276;SDS011;7222;57.346;12.150;2022-12-07T12:21:19;1.37;;;0.73;;
14276;SDS011;7222;57.346;12.150;2022-12-07T12:23:50;0.83;;;0.80;;
14276;SDS011;7222;57.346;12.150;2022-12-07T12:26:22;0.70;;;0.70;;
14276;SDS011;7222;57.346;12.150;2022-12-07T12:28:52;1.53;;;0.80;;
14276;SDS011;7222;57.346;12.150;2022-12-07T12:31:31;1.03;;;0.87;;
14276;SDS011;7222;57.346;12.150;2022-12-07T12:34:03;1.50;;;0.60;;
14276;SDS011;7222;57.346;12.150;2022-12-07T12:36:51;0.77;;;0.73;;
14276;SDS011;7222;57.346;12.150;2022-12-07T12:39:18;1.43;;;0.93;;
14276;SDS011;7222;57.346;12.150;2022-12-07T12:41:56;0.83;;;0.83;;
14276;SDS011;7222;57.346;12.150;2022-12-07T12:47:40;0.80;;;0.80;;
14276;SDS011;7222;57.346;12.150;2022-12-07T12:52:50;1.23;;;0.80;;
14276;SDS011;7222;57.346;12.150;2022-12-07T12:58:35;0.70;;;0.70;;
14276;SDS011;7222;57.346;12.150;2022-12-07T13:10:35;1.37;;;0.90;;
14276;SDS011;7222;57.346;12.150;2022-12-07T13:25:22;0.70;;;0.63;;
14276;SDS011;7222;57.346;12.150;2022-12-07T13:28:01;0.90;;;0.90;;
14276;SDS011;7222;57.346;12.150;2022-12-07T13:30:33;1.03;;;0.80;;
14276;SDS011;7222;57.346;12.150;2022-12-07T13:33:10;0.70;;;0.70;;
14276;SDS011;7222;57.346;12.150;2022-12-07T13:35:38;0.73;;;0.70;;
14276;SDS011;7222;57.346;12.150;2022-12-07T13:38:13;1.17;;;0.67;;
14276;SDS011;7222;57.346;12.150;2022-12-07T13:41:00;1.37;;;0.80;;
14276;SDS011;7222;57.346;12.150;2022-12-07T13:43:28;0.83;;;0.70;;
14276;SDS011;7222;57.346;12.150;2022-12-07T13:45:56;1.00;;;0.70;;
14276;SDS011;7222;57.346;12.150;2022-12-07T13:48:24;0.93;;;0.70;;
14276;SDS011;7222;57.346;12.150;2022-12-07T13:50:58;0.70;;;0.70;;
14276;SDS011;7222;57.346;12.150;2022-12-07T13:53:27;0.73;;;0.73;;
14276;SDS011;7222;57.346;12.150;2022-12-07T13:55:55;1.80;;;0.70;;
14276;SDS011;7222;57.346;12.150;2022-12-07T13:58:24;1.73;;;0.93;;
14276;SDS011;7222;57.346;12.150;2022-12-07T14:00:52;1.27;;;1.10;;
14276;SDS011;7222;57.346;12.150;2022-12-07T14:03:27;1.90;;;0.73;;
14276;SDS011;7222;57.346;12.150;2022-12-07T14:06:03;1.10;;;1.00;;
14276;SDS011;7222;57.346;12.150;2022-12-07T14:08:32;1.77;;;1.20;;
14276;SDS011;7222;57.346;12.150;2022-12-07T14:10:59;1.10;;;0.90;;
14276;SDS011;7222;57.346;12.150;2022-12-07T14:13:30;1.10;;;0.93;;
14276;SDS011;7222;57.346;12.150;2022-12-07T14:16:00;3.20;;;1.40;;
14276;SDS011;7222;57.346;12.150;2022-12-07T14:18:28;1.80;;;1.70;;
14276;SDS011;7222;57.346;12.150;2022-12-07T14:21:03;2.00;;;1.30;;
14276;SDS011;7222;57.346;12.150;2022-12-07T14:23:30;1.47;;;1.30;;
14276;SDS011;7222;57.346;12.150;2022-12-07T14:26:05;1.87;;;1.70;;
14276;SDS011;7222;57.346;12.150;2022-12-07T14:28:36;1.47;;;1.37;;
14276;SDS011;7222;57.346;12.150;2022-12-07T14:31:04;1.13;;;1.00;;
14276;SDS011;7222;57.346;12.150;2022-12-07T14:33:37;1.70;;;1.53;;
14276;SDS011;7222;57.346;12.150;2022-12-07T14:36:05;3.00;;;2.80;;
14276;SDS011;7222;57.346;12.150;2022-12-07T14:38:33;1.70;;;1.60;;
14276;SDS011;7222;57.346;12.150;2022-12-07T14:41:00;3.17;;;1.50;;
14276;SDS011;7222;57.346;12.150;2022-12-07T14:43:43;1.47;;;1.37;;
14276;SDS011;7222;57.346;12.150;2022-12-07T14:46:10;4.70;;;1.93;;
14276;SDS011;7222;57.346;12.150;2022-12-07T14:48:37;2.53;;;1.63;;
14276;SDS011;7222;57.346;12.150;2022-12-07T14:51:04;2.30;;;1.53;;
14276;SDS011;7222;57.346;12.150;2022-12-07T14:53:33;2.40;;;2.10;;
14276;SDS011;7222;57.346;12.150;2022-12-07T14:56:02;1.90;;;1.80;;
14276;SDS011;7222;57.346;12.150;2022-12-07T14:58:31;2.83;;;2.00;;
14276;SDS011;7222;57.346;12.150;2022-12-07T15:01:00;2.53;;;1.60;;
14276;SDS011;7222;57.346;12.150;2022-12-07T15:03:27;1.63;;;1.43;;
14276;SDS011;7222;57.346;12.150;2022-12-07T15:05:54;2.00;;;1.80;;
14276;SDS011;7222;57.346;12.150;2022-12-07T15:08:21;2.47;;;1.50;;
14276;SDS011;7222;57.346;12.150;2022-12-07T15:10:48;2.13;;;1.70;;
14276;SDS011;7222;57.346;12.150;2022-12-07T15:13:15;2.83;;;2.37;;
14276;SDS011;7222;57.346;12.150;2022-12-07T15:16:00;2.10;;;1.60;;
14276;SDS011;7222;57.346;12.150;2022-12-07T15:18:28;2.13;;;1.80;;
14276;SDS011;7222;57.346;12.150;2022-12-07T15:20:55;3.57;;;2.07;;
14276;SDS011;7222;57.346;12.150;2022-12-07T15:23:22;2.93;;;1.97;;
14276;SDS011;7222;57.346;12.150;2022-12-07T15:25:49;1.53;;;1.43;;
14276;SDS011;7222;57.346;12.150;2022-12-07T15:28:15;2.37;;;1.80;;
14276;SDS011;7222;57.346;12.150;2022-12-07T15:30:43;1.80;;;1.40;;
14276;SDS011;7222;57.346;12.150;2022-12-07T15:33:12;2.30;;;1.73;;
14276;SDS011;7222;57.346;12.150;2022-12-07T15:35:39;4.00;;;3.40;;
14276;SDS011;7222;57.346;12.150;2022-12-07T15:38:06;2.73;;;2.10;;
14276;SDS011;7222;57.346;12.150;2022-12-07T15:40:33;6.27;;;3.20;;